createdAt,value
2019-06-08T00:00:55.207Z,0.00
2019-06-08T00:01:55.130Z,0.00
2019-06-08T00:02:55.057Z,0.00
2019-06-08T00:03:55.031Z,0.00
2019-06-08T00:04:54.938Z,0.00
2019-06-08T00:05:54.847Z,0.00
2019-06-08T00:06:54.755Z,0.00
2019-06-08T00:07:54.680Z,0.00
2019-06-08T00:08:54.608Z,0.00
2019-06-08T00:09:54.532Z,0.00
2019-06-08T00:10:54.455Z,0.00
2019-06-08T00:11:54.385Z,0.00
2019-06-08T00:12:54.307Z,0.00
2019-06-08T00:13:54.233Z,0.00
2019-06-08T00:14:54.271Z,0.00
2019-06-08T00:15:54.083Z,0.00
2019-06-08T00:16:54.007Z,0.00
2019-06-08T00:17:53.966Z,0.00
2019-06-08T00:18:53.856Z,0.00
2019-06-08T00:19:53.783Z,0.00
2019-06-08T00:20:53.708Z,0.00
2019-06-08T00:21:53.634Z,0.00
2019-06-08T00:22:53.560Z,0.00
2019-06-08T00:23:53.493Z,0.00
2019-06-08T00:24:53.408Z,0.00
2019-06-08T00:25:53.332Z,0.00
2019-06-08T00:26:53.258Z,0.00
2019-06-08T00:27:53.189Z,0.00
2019-06-08T00:28:53.115Z,0.00
2019-06-08T00:29:53.033Z,0.00
2019-06-08T00:30:52.956Z,0.00
2019-06-08T00:31:52.887Z,0.00
2019-06-08T00:32:52.808Z,0.00
2019-06-08T00:33:52.735Z,0.00
2019-06-08T00:34:52.657Z,0.00
2019-06-08T00:35:52.582Z,0.00
2019-06-08T00:36:52.508Z,0.00
2019-06-08T00:37:52.437Z,0.00
2019-06-08T00:38:52.355Z,0.00
2019-06-08T00:39:52.282Z,0.00
2019-06-08T00:40:52.207Z,0.00
2019-06-08T00:41:52.133Z,0.00
2019-06-08T00:42:52.056Z,0.00
2019-06-08T00:43:51.982Z,0.00
2019-06-08T00:44:51.906Z,0.00
2019-06-08T00:45:51.939Z,0.00
2019-06-08T00:46:51.757Z,0.00
2019-06-08T00:47:51.681Z,0.00
2019-06-08T00:48:51.606Z,0.00
2019-06-08T00:49:51.531Z,0.00
2019-06-08T00:50:51.465Z,0.00
2019-06-08T00:51:51.379Z,0.00
2019-06-08T00:52:51.303Z,0.00
2019-06-08T00:53:51.233Z,0.00
2019-06-08T00:54:51.164Z,0.00
2019-06-08T00:55:51.078Z,0.00
2019-06-08T00:56:51.015Z,0.00
2019-06-08T00:57:50.943Z,0.00
2019-06-08T00:58:50.853Z,0.00
2019-06-08T00:59:50.778Z,0.00
2019-06-08T01:00:50.705Z,0.00
2019-06-08T01:01:50.628Z,0.00
2019-06-08T01:02:50.552Z,0.00
2019-06-08T01:03:50.477Z,0.00
2019-06-08T01:04:50.403Z,0.00
2019-06-08T01:05:50.326Z,0.00
2019-06-08T01:06:50.276Z,0.00
2019-06-08T01:07:50.179Z,0.00
2019-06-08T01:08:50.102Z,0.00
2019-06-08T01:09:50.026Z,0.00
2019-06-08T01:10:49.951Z,0.00
2019-06-08T01:11:49.875Z,0.00
2019-06-08T01:12:49.801Z,0.00
2019-06-08T01:13:49.725Z,0.00
2019-06-08T01:14:49.649Z,0.00
2019-06-08T01:15:49.575Z,0.00
2019-06-08T01:16:49.506Z,0.00
2019-06-08T01:18:02.264Z,0.00
2019-06-08T01:18:49.350Z,0.00
2019-06-08T01:19:49.277Z,0.00
2019-06-08T01:20:49.243Z,0.00
2019-06-08T01:21:49.125Z,0.00
2019-06-08T01:22:49.049Z,0.00
2019-06-08T01:23:48.974Z,0.00
2019-06-08T01:24:48.901Z,0.00
2019-06-08T01:25:48.822Z,0.00
2019-06-08T01:26:48.746Z,0.00
2019-06-08T01:27:48.671Z,0.00
2019-06-08T01:28:48.596Z,0.00
2019-06-08T01:29:48.521Z,0.00
2019-06-08T01:30:48.446Z,0.00
2019-06-08T01:31:48.405Z,0.00
2019-06-08T01:32:48.315Z,0.00
2019-06-08T01:33:48.220Z,0.00
2019-06-08T01:34:48.145Z,0.00
2019-06-08T01:35:48.068Z,0.00
2019-06-08T01:36:47.993Z,0.00
2019-06-08T01:37:47.919Z,0.00
2019-06-08T01:38:47.842Z,0.00
2019-06-08T01:39:47.768Z,0.00
2019-06-08T01:40:47.696Z,0.00
2019-06-08T01:41:47.619Z,0.00
2019-06-08T01:42:47.545Z,0.00
2019-06-08T01:43:47.467Z,0.00
2019-06-08T01:44:47.492Z,0.00
2019-06-08T01:45:47.320Z,0.00
2019-06-08T01:46:47.249Z,0.00
2019-06-08T01:47:47.166Z,0.00
2019-06-08T01:48:47.090Z,0.00
2019-06-08T01:49:47.017Z,0.00
2019-06-08T01:50:46.943Z,0.00
2019-06-08T01:51:46.869Z,0.00
2019-06-08T01:52:46.791Z,0.00
2019-06-08T01:53:46.715Z,0.00
2019-06-08T01:54:46.641Z,0.00
2019-06-08T01:55:46.570Z,0.00
2019-06-08T01:56:46.489Z,0.00
2019-06-08T01:57:46.415Z,0.00
2019-06-08T01:58:46.339Z,0.00
2019-06-08T01:59:46.264Z,0.00
2019-06-08T02:00:46.189Z,0.00
2019-06-08T02:01:46.113Z,0.00
2019-06-08T02:02:46.038Z,0.00
2019-06-08T02:03:45.970Z,0.00
2019-06-08T02:04:45.888Z,0.00
2019-06-08T02:05:45.812Z,0.00
2019-06-08T02:06:45.855Z,0.00
2019-06-08T02:07:45.660Z,0.00
2019-06-08T02:08:45.586Z,0.00
2019-06-08T02:09:45.510Z,0.00
2019-06-08T02:10:45.434Z,0.00
2019-06-08T02:11:45.359Z,0.00
2019-06-08T02:12:45.285Z,0.00
2019-06-08T02:13:45.211Z,0.00
2019-06-08T02:14:45.134Z,0.00
2019-06-08T02:15:45.059Z,0.00
2019-06-08T02:16:44.985Z,0.00
2019-06-08T02:17:44.908Z,0.00
2019-06-08T02:18:50.850Z,0.00
2019-06-08T02:19:44.758Z,0.00
2019-06-08T02:20:44.694Z,0.00
2019-06-08T02:21:44.612Z,0.00
2019-06-08T02:22:44.535Z,0.00
2019-06-08T02:23:44.460Z,0.00
2019-06-08T02:24:44.384Z,0.00
2019-06-08T02:25:44.311Z,0.00
2019-06-08T02:26:44.234Z,0.00
2019-06-08T02:27:44.158Z,0.00
2019-06-08T02:28:44.087Z,0.00
2019-06-08T02:29:44.010Z,0.00
2019-06-08T02:30:43.934Z,0.00
2019-06-08T02:31:47.875Z,0.00
2019-06-08T02:32:43.787Z,0.00
2019-06-08T02:33:43.712Z,0.00
2019-06-08T02:34:43.633Z,0.00
2019-06-08T02:35:43.561Z,0.00
2019-06-08T02:36:43.485Z,0.00
2019-06-08T02:37:43.410Z,0.00
2019-06-08T02:38:43.335Z,0.00
2019-06-08T02:39:43.261Z,0.00
2019-06-08T02:40:43.185Z,0.00
2019-06-08T02:41:43.112Z,0.00
2019-06-08T02:42:43.036Z,0.00
2019-06-08T02:43:42.960Z,0.00
2019-06-08T02:44:42.889Z,0.00
2019-06-08T02:45:42.813Z,0.00
2019-06-08T02:46:42.737Z,0.00
2019-06-08T02:47:42.663Z,0.00
2019-06-08T02:49:02.799Z,4.00
2019-06-08T02:49:42.513Z,4.00
2019-06-08T02:50:42.436Z,0.00
2019-06-08T02:51:42.363Z,4.00
2019-06-08T02:52:42.288Z,4.00
2019-06-08T02:53:42.212Z,4.00
2019-06-08T02:54:42.157Z,4.00
2019-06-08T02:55:42.067Z,4.00
2019-06-08T02:56:41.989Z,8.00
2019-06-08T02:57:41.915Z,8.00
2019-06-08T02:58:41.839Z,12.00
2019-06-08T02:59:41.768Z,16.00
2019-06-08T03:00:41.690Z,16.00
2019-06-08T03:01:41.617Z,16.00
2019-06-08T03:02:41.539Z,16.00
2019-06-08T03:03:41.465Z,16.00
2019-06-08T03:04:41.488Z,20.00
2019-06-08T03:05:41.317Z,20.00
2019-06-08T03:06:41.647Z,24.00
2019-06-08T03:07:41.311Z,24.00
2019-06-08T03:08:43.812Z,24.00
2019-06-08T03:09:41.277Z,24.00
2019-06-08T03:10:41.371Z,32.00
2019-06-08T03:11:41.301Z,40.00
2019-06-08T03:12:42.484Z,44.00
2019-06-08T03:13:42.606Z,52.00
2019-06-08T03:14:42.142Z,56.00
2019-06-08T03:15:41.609Z,64.00
2019-06-08T03:16:41.642Z,76.00
2019-06-08T03:17:41.907Z,88.00
2019-06-08T03:18:42.370Z,100.00
2019-06-08T03:19:41.790Z,108.00
2019-06-08T03:20:42.273Z,112.00
2019-06-08T03:21:40.949Z,120.00
2019-06-08T03:22:41.894Z,132.00
2019-06-08T03:23:41.505Z,140.00
2019-06-08T03:24:41.185Z,148.00
2019-06-08T03:25:50.717Z,152.00
2019-06-08T03:26:41.840Z,164.00
2019-06-08T03:27:40.758Z,176.00
2019-06-08T03:28:41.434Z,184.00
2019-06-08T03:29:41.442Z,196.00
2019-06-08T03:30:47.495Z,200.00
2019-06-08T03:31:49.717Z,208.00
2019-06-08T03:32:46.992Z,228.00
2019-06-08T03:33:48.948Z,240.00
2019-06-08T03:34:46.007Z,248.00
2019-06-08T03:35:48.398Z,268.00
2019-06-08T03:36:46.331Z,292.00
2019-06-08T03:37:40.058Z,312.00
2019-06-08T03:38:40.241Z,320.00
2019-06-08T03:39:38.998Z,328.00
2019-06-08T03:40:40.392Z,356.00
2019-06-08T03:41:40.314Z,380.00
2019-06-08T03:42:38.544Z,412.00
2019-06-08T03:43:40.681Z,432.00
2019-06-08T03:44:38.982Z,452.00
2019-06-08T03:45:38.350Z,408.00
2019-06-08T03:46:38.827Z,448.00
2019-06-08T03:47:39.174Z,488.00
2019-06-08T03:48:40.037Z,504.00
2019-06-08T03:49:47.565Z,468.00
2019-06-08T03:50:40.178Z,504.00
2019-06-08T03:51:41.857Z,532.00
2019-06-08T03:52:39.724Z,624.00
2019-06-08T03:53:39.652Z,704.00
2019-06-08T03:54:38.900Z,648.00
2019-06-08T03:55:38.142Z,624.00
2019-06-08T03:56:38.023Z,600.00
2019-06-08T03:57:38.260Z,532.00
2019-06-08T03:58:38.519Z,504.00
2019-06-08T03:59:38.525Z,548.00
2019-06-08T04:00:38.215Z,536.00
2019-06-08T04:01:37.531Z,508.00
2019-06-08T04:02:37.910Z,540.00
2019-06-08T04:03:37.589Z,636.00
2019-06-08T04:04:37.964Z,760.00
2019-06-08T04:05:37.847Z,1080.00
2019-06-08T04:06:37.694Z,1472.00
2019-06-08T04:07:37.600Z,1616.00
2019-06-08T04:08:37.983Z,1404.00
2019-06-08T04:09:37.733Z,1468.00
2019-06-08T04:10:37.613Z,1144.00
2019-06-08T04:11:37.761Z,812.00
2019-06-08T04:12:37.791Z,784.00
2019-06-08T04:13:37.718Z,728.00
2019-06-08T04:14:37.754Z,664.00
2019-06-08T04:15:37.811Z,640.00
2019-06-08T04:16:38.102Z,636.00
2019-06-08T04:17:35.909Z,656.00
2019-06-08T04:18:35.833Z,664.00
2019-06-08T04:19:35.762Z,696.00
2019-06-08T04:20:35.701Z,748.00
2019-06-08T04:21:35.607Z,844.00
2019-06-08T04:22:35.533Z,1008.00
2019-06-08T04:23:35.457Z,1228.00
2019-06-08T04:24:35.382Z,1444.00
2019-06-08T04:25:35.307Z,952.00
2019-06-08T04:26:35.230Z,852.00
2019-06-08T04:27:35.156Z,880.00
2019-06-08T04:28:35.080Z,908.00
2019-06-08T04:29:35.006Z,948.00
2019-06-08T04:30:35.017Z,1056.00
2019-06-08T04:31:34.857Z,1152.00
2019-06-08T04:32:34.780Z,1196.00
2019-06-08T04:33:34.708Z,1076.00
2019-06-08T04:34:34.643Z,1040.00
2019-06-08T04:35:34.555Z,1020.00
2019-06-08T04:36:34.486Z,1020.00
2019-06-08T04:37:34.406Z,1040.00
2019-06-08T04:38:34.332Z,1064.00
2019-06-08T04:39:34.254Z,1116.00
2019-06-08T04:40:34.181Z,1204.00
2019-06-08T04:41:34.105Z,1128.00
2019-06-08T04:42:34.031Z,1000.00
2019-06-08T04:43:33.956Z,952.00
2019-06-08T04:44:33.880Z,916.00
2019-06-08T04:45:33.807Z,900.00
2019-06-08T04:46:33.728Z,900.00
2019-06-08T04:47:33.653Z,920.00
2019-06-08T04:48:33.579Z,976.00
2019-06-08T04:49:33.505Z,992.00
2019-06-08T04:50:33.427Z,940.00
2019-06-08T04:51:33.361Z,936.00
2019-06-08T04:52:33.279Z,964.00
2019-06-08T04:53:33.204Z,1012.00
2019-06-08T04:54:33.140Z,1004.00
2019-06-08T04:55:33.053Z,1060.00
2019-06-08T04:56:32.979Z,1220.00
2019-06-08T04:57:33.005Z,1256.00
2019-06-08T04:58:32.833Z,1268.00
2019-06-08T04:59:32.754Z,1136.00
2019-06-08T05:00:32.677Z,1112.00
2019-06-08T05:01:32.614Z,1196.00
2019-06-08T05:02:32.527Z,1160.00
2019-06-08T05:03:32.454Z,952.00
2019-06-08T05:04:32.378Z,960.00
2019-06-08T05:05:32.303Z,976.00
2019-06-08T05:06:32.228Z,984.00
2019-06-08T05:07:32.254Z,992.00
2019-06-08T05:08:32.079Z,1016.00
2019-06-08T05:09:32.009Z,1084.00
2019-06-08T05:10:32.027Z,1064.00
2019-06-08T05:11:31.856Z,1200.00
2019-06-08T05:12:31.779Z,1372.00
2019-06-08T05:13:31.703Z,1296.00
2019-06-08T05:14:31.627Z,1100.00
2019-06-08T05:15:31.554Z,1088.00
2019-06-08T05:16:31.478Z,1136.00
2019-06-08T05:17:31.404Z,1144.00
2019-06-08T05:18:31.327Z,1192.00
2019-06-08T05:19:31.747Z,1436.00
2019-06-08T05:20:38.828Z,1440.00
2019-06-08T05:21:31.103Z,1364.00
2019-06-08T05:22:31.027Z,1380.00
2019-06-08T05:23:30.954Z,1488.00
2019-06-08T05:24:30.896Z,1488.00
2019-06-08T05:25:30.803Z,1312.00
2019-06-08T05:26:30.757Z,1528.00
2019-06-08T05:27:30.653Z,1536.00
2019-06-08T05:28:30.598Z,1648.00
2019-06-08T05:29:30.503Z,1588.00
2019-06-08T05:30:30.429Z,1452.00
2019-06-08T05:31:30.354Z,1508.00
2019-06-08T05:32:30.282Z,1564.00
2019-06-08T05:33:30.204Z,1576.00
2019-06-08T05:34:30.127Z,1584.00
2019-06-08T05:35:30.053Z,1584.00
2019-06-08T05:36:29.978Z,1584.00
2019-06-08T05:37:29.904Z,1588.00
2019-06-08T05:38:29.828Z,1584.00
2019-06-08T05:39:29.755Z,1600.00
2019-06-08T05:40:29.679Z,1604.00
2019-06-08T05:41:29.604Z,1612.00
2019-06-08T05:42:29.529Z,1596.00
2019-06-08T05:43:29.455Z,1608.00
2019-06-08T05:44:29.380Z,1616.00
2019-06-08T05:45:29.305Z,1620.00
2019-06-08T05:46:29.231Z,1628.00
2019-06-08T05:47:29.156Z,1640.00
2019-06-08T05:48:29.081Z,1648.00
2019-06-08T05:49:29.008Z,1656.00
2019-06-08T05:50:28.957Z,1668.00
2019-06-08T05:51:28.864Z,1680.00
2019-06-08T05:52:28.784Z,1724.00
2019-06-08T05:53:28.712Z,1756.00
2019-06-08T05:54:28.635Z,1848.00
2019-06-08T05:55:28.559Z,2536.00
2019-06-08T05:56:28.485Z,4428.00
2019-06-08T05:57:28.410Z,3160.00
2019-06-08T05:58:28.334Z,3004.00
2019-06-08T05:59:28.261Z,3532.00
2019-06-08T06:00:28.187Z,4660.00
2019-06-08T06:01:28.114Z,3668.00
2019-06-08T06:02:28.036Z,3232.00
2019-06-08T06:03:27.963Z,3408.00
2019-06-08T06:04:27.889Z,3468.00
2019-06-08T06:05:27.816Z,2288.00
2019-06-08T06:06:27.741Z,2276.00
2019-06-08T06:07:27.667Z,1608.00
2019-06-08T06:08:27.693Z,1880.00
2019-06-08T06:09:27.519Z,2900.00
2019-06-08T06:10:27.470Z,1864.00
2019-06-08T06:11:27.372Z,2288.00
2019-06-08T06:12:27.299Z,2320.00
2019-06-08T06:13:27.223Z,2604.00
2019-06-08T06:14:27.148Z,2196.00
2019-06-08T06:15:27.074Z,1908.00
2019-06-08T06:16:27.000Z,2956.00
2019-06-08T06:17:26.929Z,2172.00
2019-06-08T06:18:26.879Z,1812.00
2019-06-08T06:19:26.791Z,1776.00
2019-06-08T06:20:26.704Z,1744.00
2019-06-08T06:21:26.629Z,1492.00
2019-06-08T06:22:26.555Z,1568.00
2019-06-08T06:23:26.480Z,1988.00
2019-06-08T06:24:26.409Z,1960.00
2019-06-08T06:25:26.333Z,2560.00
2019-06-08T06:26:26.262Z,2032.00
2019-06-08T06:27:26.187Z,2812.00
2019-06-08T06:28:26.111Z,2372.00
2019-06-08T06:29:26.036Z,3468.00
2019-06-08T06:30:25.962Z,2308.00
2019-06-08T06:31:25.888Z,3124.00
2019-06-08T06:32:25.815Z,1844.00
2019-06-08T06:33:25.739Z,2580.00
2019-06-08T06:34:25.672Z,1900.00
2019-06-08T06:35:25.591Z,1988.00
2019-06-08T06:36:25.517Z,2416.00
2019-06-08T06:37:25.444Z,2284.00
2019-06-08T06:38:25.368Z,2644.00
2019-06-08T06:39:25.294Z,3256.00
2019-06-08T06:40:25.220Z,2008.00
2019-06-08T06:41:25.148Z,2116.00
2019-06-08T06:42:25.362Z,2552.00
2019-06-08T06:43:24.998Z,4844.00
2019-06-08T06:44:24.922Z,2264.00
2019-06-08T06:45:24.849Z,3344.00
2019-06-08T06:46:24.777Z,1660.00
2019-06-08T06:47:24.704Z,2260.00
2019-06-08T06:48:24.691Z,2668.00
2019-06-08T06:49:24.553Z,3816.00
2019-06-08T06:50:24.477Z,4700.00
2019-06-08T06:51:26.492Z,3332.00
2019-06-08T06:52:24.330Z,2872.00
2019-06-08T06:53:24.258Z,2724.00
2019-06-08T06:54:24.182Z,2292.00
2019-06-08T06:55:25.503Z,2352.00
2019-06-08T06:56:24.074Z,2404.00
2019-06-08T06:57:23.963Z,2744.00
2019-06-08T06:58:23.887Z,2756.00
2019-06-08T06:59:23.812Z,2172.00
2019-06-08T07:00:23.738Z,2016.00
2019-06-08T07:01:23.665Z,2040.00
2019-06-08T07:02:23.589Z,1856.00
2019-06-08T07:03:23.517Z,2368.00
2019-06-08T07:04:23.444Z,3172.00
2019-06-08T07:05:23.369Z,3424.00
2019-06-08T07:06:23.294Z,3844.00
2019-06-08T07:07:23.220Z,3344.00
2019-06-08T07:08:23.146Z,2628.00
2019-06-08T07:09:23.072Z,1896.00
2019-06-08T07:10:22.999Z,1956.00
2019-06-08T07:11:22.923Z,2456.00
2019-06-08T07:12:22.853Z,2552.00
2019-06-08T07:13:22.776Z,2048.00
2019-06-08T07:14:22.703Z,2328.00
2019-06-08T07:15:22.627Z,2732.00
2019-06-08T07:16:22.558Z,3516.00
2019-06-08T07:17:22.483Z,2676.00
2019-06-08T07:18:22.406Z,2820.00
2019-06-08T07:19:22.334Z,2356.00
2019-06-08T07:20:22.260Z,2124.00
2019-06-08T07:21:22.186Z,1940.00
2019-06-08T07:22:22.111Z,2408.00
2019-06-08T07:23:22.038Z,2476.00
2019-06-08T07:24:21.972Z,2100.00
2019-06-08T07:25:21.890Z,2376.00
2019-06-08T07:26:21.814Z,2460.00
2019-06-08T07:27:21.742Z,2608.00
2019-06-08T07:28:21.668Z,3188.00
2019-06-08T07:29:21.595Z,3940.00
2019-06-08T07:30:21.558Z,3460.00
2019-06-08T07:31:21.447Z,3328.00
2019-06-08T07:32:21.373Z,3212.00
2019-06-08T07:33:21.301Z,3852.00
2019-06-08T07:34:21.226Z,3584.00
2019-06-08T07:35:21.152Z,2968.00
2019-06-08T07:36:21.132Z,2952.00
2019-06-08T07:37:21.004Z,2280.00
2019-06-08T07:38:20.930Z,2076.00
2019-06-08T07:39:20.857Z,2792.00
2019-06-08T07:40:20.788Z,2828.00
2019-06-08T07:41:20.713Z,3644.00
2019-06-08T07:42:20.638Z,2800.00
2019-06-08T07:43:20.565Z,2864.00
2019-06-08T07:44:20.503Z,3836.00
2019-06-08T07:45:20.422Z,3308.00
2019-06-08T07:46:21.579Z,2240.00
2019-06-08T07:47:20.271Z,2724.00
2019-06-08T07:48:20.204Z,4084.00
2019-06-08T07:49:20.124Z,4132.00
2019-06-08T07:50:20.062Z,3680.00
2019-06-08T07:51:19.976Z,5204.00
2019-06-08T07:52:19.904Z,5320.00
2019-06-08T07:53:19.833Z,4712.00
2019-06-08T07:54:19.757Z,5248.00
2019-06-08T07:55:19.682Z,5100.00
2019-06-08T07:56:19.612Z,2956.00
2019-06-08T07:57:19.536Z,2360.00
2019-06-08T07:58:19.463Z,3284.00
2019-06-08T07:59:19.390Z,3352.00
2019-06-08T08:00:19.326Z,4564.00
2019-06-08T08:01:32.922Z,4872.00
2019-06-08T08:02:19.171Z,4248.00
2019-06-08T08:03:19.098Z,2316.00
2019-06-08T08:04:19.030Z,2912.00
2019-06-08T08:05:18.951Z,3908.00
2019-06-08T08:06:18.952Z,5400.00
2019-06-08T08:07:18.807Z,3556.00
2019-06-08T08:08:18.734Z,2600.00
2019-06-08T08:09:18.660Z,2792.00
2019-06-08T08:10:18.606Z,3452.00
2019-06-08T08:11:18.513Z,3204.00
2019-06-08T08:12:18.448Z,2492.00
2019-06-08T08:13:18.396Z,2544.00
2019-06-08T08:14:18.324Z,2940.00
2019-06-08T08:15:18.242Z,3932.00
2019-06-08T08:16:18.148Z,2836.00
2019-06-08T08:17:18.074Z,2628.00
2019-06-08T08:18:18.005Z,2292.00
2019-06-08T08:19:17.929Z,2076.00
2019-06-08T08:20:17.856Z,2476.00
2019-06-08T08:21:23.130Z,2720.00
2019-06-08T08:22:25.061Z,3868.00
2019-06-08T08:23:17.636Z,2972.00
2019-06-08T08:24:17.564Z,2940.00
2019-06-08T08:25:18.289Z,2872.00
2019-06-08T08:26:17.415Z,2840.00
2019-06-08T08:27:17.952Z,2976.00
2019-06-08T08:28:17.675Z,4520.00
2019-06-08T08:29:17.694Z,5000.00
2019-06-08T08:30:17.767Z,6816.00
2019-06-08T08:31:18.566Z,8376.00
2019-06-08T08:32:18.823Z,7116.00
2019-06-08T08:33:18.417Z,5828.00
2019-06-08T08:34:18.259Z,4880.00
2019-06-08T08:35:18.544Z,4452.00
2019-06-08T08:36:18.054Z,5200.00
2019-06-08T08:37:17.535Z,7616.00
2019-06-08T08:38:17.701Z,7920.00
2019-06-08T08:39:17.615Z,7532.00
2019-06-08T08:40:17.872Z,7444.00
2019-06-08T08:41:18.134Z,7624.00
2019-06-08T08:42:17.977Z,7428.00
2019-06-08T08:43:17.797Z,9316.00
2019-06-08T08:44:17.636Z,8756.00
2019-06-08T08:45:18.169Z,9196.00
2019-06-08T08:46:17.329Z,7612.00
2019-06-08T08:47:18.526Z,5552.00
2019-06-08T08:48:25.264Z,5020.00
2019-06-08T08:49:18.076Z,4320.00
2019-06-08T08:50:15.672Z,6332.00
2019-06-08T08:51:20.440Z,7484.00
2019-06-08T08:52:17.483Z,6280.00
2019-06-08T08:53:17.890Z,5996.00
2019-06-08T08:54:18.113Z,9172.00
2019-06-08T08:55:20.232Z,8104.00
2019-06-08T08:56:15.239Z,7868.00
2019-06-08T08:57:15.168Z,7780.00
2019-06-08T08:58:15.095Z,6568.00
2019-06-08T08:59:15.024Z,4180.00
2019-06-08T09:00:14.952Z,4132.00
2019-06-08T09:01:20.198Z,4872.00
2019-06-08T09:02:14.808Z,5200.00
2019-06-08T09:03:27.917Z,4536.00
2019-06-08T09:04:14.675Z,4508.00
2019-06-08T09:05:14.593Z,3952.00
2019-06-08T09:06:14.520Z,3196.00
2019-06-08T09:07:14.450Z,3540.00
2019-06-08T09:08:14.378Z,4464.00
2019-06-08T09:09:14.313Z,5260.00
2019-06-08T09:10:14.232Z,6800.00
2019-06-08T09:11:14.161Z,7116.00
2019-06-08T09:12:14.090Z,5284.00
2019-06-08T09:13:14.035Z,3444.00
2019-06-08T09:14:14.457Z,3644.00
2019-06-08T09:15:13.871Z,4076.00
2019-06-08T09:16:13.800Z,4028.00
2019-06-08T09:17:13.727Z,4596.00
2019-06-08T09:18:13.664Z,5300.00
2019-06-08T09:19:13.589Z,5296.00
2019-06-08T09:20:15.876Z,5332.00
2019-06-08T09:21:13.439Z,5112.00
2019-06-08T09:22:13.366Z,6272.00
2019-06-08T09:23:16.675Z,6844.00
2019-06-08T09:24:13.222Z,5696.00
2019-06-08T09:25:13.699Z,6984.00
2019-06-08T09:26:13.463Z,9616.00
2019-06-08T09:27:13.019Z,7572.00
2019-06-08T09:28:12.957Z,6828.00
2019-06-08T09:29:12.875Z,6088.00
2019-06-08T09:30:12.789Z,6388.00
2019-06-08T09:31:13.243Z,4808.00
2019-06-08T09:32:12.655Z,5076.00
2019-06-08T09:33:12.574Z,4740.00
2019-06-08T09:34:15.419Z,5164.00
2019-06-08T09:35:12.431Z,5756.00
2019-06-08T09:36:12.359Z,8012.00
2019-06-08T09:37:12.287Z,7372.00
2019-06-08T09:38:12.216Z,8252.00
2019-06-08T09:39:13.115Z,9276.00
2019-06-08T09:40:12.071Z,10196.00
2019-06-08T09:41:12.000Z,8316.00
2019-06-08T09:42:11.956Z,7016.00
2019-06-08T09:43:13.253Z,7968.00
2019-06-08T09:44:12.126Z,9076.00
2019-06-08T09:45:11.720Z,8720.00
2019-06-08T09:46:11.653Z,9936.00
2019-06-08T09:47:12.652Z,8588.00
2019-06-08T09:48:11.506Z,11476.00
2019-06-08T09:49:12.025Z,9164.00
2019-06-08T09:50:11.355Z,7928.00
2019-06-08T09:51:11.284Z,9480.00
2019-06-08T09:52:11.253Z,8324.00
2019-06-08T09:53:24.306Z,9332.00
2019-06-08T09:54:12.839Z,8360.00
2019-06-08T09:55:11.020Z,10876.00
2019-06-08T09:56:11.013Z,11548.00
2019-06-08T09:57:10.855Z,10644.00
2019-06-08T09:58:11.896Z,10492.00
2019-06-08T09:59:13.973Z,10524.00
2019-06-08T10:00:17.864Z,9284.00
2019-06-08T10:01:12.241Z,11328.00
2019-06-08T10:02:12.895Z,10504.00
2019-06-08T10:03:10.426Z,10756.00
2019-06-08T10:04:10.351Z,10548.00
2019-06-08T10:05:10.300Z,10808.00
2019-06-08T10:06:12.535Z,10132.00
2019-06-08T10:07:10.140Z,11352.00
2019-06-08T10:08:10.066Z,11044.00
2019-06-08T10:09:10.005Z,9612.00
2019-06-08T10:10:10.073Z,9332.00
2019-06-08T10:11:09.993Z,10048.00
2019-06-08T10:12:10.146Z,10296.00
2019-06-08T10:13:10.220Z,9608.00
2019-06-08T10:14:12.471Z,10696.00
2019-06-08T10:15:09.567Z,9936.00
2019-06-08T10:16:10.522Z,11012.00
2019-06-08T10:17:09.425Z,10308.00
2019-06-08T10:18:09.360Z,8700.00
2019-06-08T10:19:10.312Z,10132.00
2019-06-08T10:20:10.144Z,11516.00
2019-06-08T10:21:09.629Z,10712.00
2019-06-08T10:22:09.070Z,10792.00
2019-06-08T10:23:27.344Z,9344.00
2019-06-08T10:24:09.708Z,6908.00
2019-06-08T10:25:11.160Z,5976.00
2019-06-08T10:26:08.799Z,7480.00
2019-06-08T10:27:11.761Z,10120.00
2019-06-08T10:28:14.030Z,9980.00
2019-06-08T10:29:10.295Z,9312.00
2019-06-08T10:30:10.057Z,11292.00
2019-06-08T10:31:08.429Z,11964.00
2019-06-08T10:32:08.942Z,13340.00
2019-06-08T10:33:10.059Z,11500.00
2019-06-08T10:34:10.851Z,12032.00
2019-06-08T10:35:10.535Z,11900.00
2019-06-08T10:36:12.292Z,9056.00
2019-06-08T10:37:12.992Z,7172.00
2019-06-08T10:38:11.718Z,9292.00
2019-06-08T10:39:11.474Z,8216.00
2019-06-08T10:40:07.937Z,8360.00
2019-06-08T10:41:16.205Z,8828.00
2019-06-08T10:42:11.043Z,9240.00
2019-06-08T10:43:09.885Z,10616.00
2019-06-08T10:44:08.574Z,9240.00
2019-06-08T10:45:10.428Z,10004.00
2019-06-08T10:46:15.634Z,9564.00
2019-06-08T10:47:10.060Z,6684.00
2019-06-08T10:48:07.239Z,9736.00
2019-06-08T10:49:13.160Z,12740.00
2019-06-08T10:50:12.773Z,14588.00
2019-06-08T10:51:10.745Z,13412.00
2019-06-08T10:52:10.794Z,10724.00
2019-06-08T10:53:10.539Z,12652.00
2019-06-08T10:54:09.343Z,12248.00
2019-06-08T10:55:09.923Z,11728.00
2019-06-08T10:56:10.252Z,11496.00
2019-06-08T10:57:07.634Z,9864.00
2019-06-08T10:58:08.945Z,11040.00
2019-06-08T10:59:09.846Z,13008.00
2019-06-08T11:00:13.700Z,13976.00
2019-06-08T11:01:10.713Z,16672.00
2019-06-08T11:02:11.791Z,16288.00
2019-06-08T11:03:09.696Z,12128.00
2019-06-08T11:04:07.217Z,11252.00
2019-06-08T11:05:12.235Z,10172.00
2019-06-08T11:06:07.567Z,9744.00
2019-06-08T11:07:12.599Z,12788.00
2019-06-08T11:08:08.651Z,10708.00
2019-06-08T11:09:11.972Z,15924.00
2019-06-08T11:10:08.521Z,12964.00
2019-06-08T11:11:09.829Z,13632.00
2019-06-08T11:12:11.175Z,14300.00
2019-06-08T11:13:10.396Z,29568.00
2019-06-08T11:14:07.080Z,16832.00
2019-06-08T11:15:05.793Z,34880.00
2019-06-08T11:16:06.605Z,10228.00
2019-06-08T11:17:08.320Z,39200.00
2019-06-08T11:18:07.004Z,18816.00
2019-06-08T11:19:07.638Z,17728.00
2019-06-08T11:20:07.420Z,10128.00
2019-06-08T11:21:07.231Z,112064.00
2019-06-08T11:22:10.446Z,112768.00
2019-06-08T11:23:05.648Z,93152.00
2019-06-08T11:24:16.146Z,59776.00
2019-06-08T11:25:08.328Z,8756.00
2019-06-08T11:26:12.081Z,9048.00
2019-06-08T11:27:05.603Z,10032.00
2019-06-08T11:28:05.509Z,11180.00
2019-06-08T11:29:05.054Z,82464.00
2019-06-08T11:30:11.313Z,12912.00
2019-06-08T11:31:04.211Z,11428.00
2019-06-08T11:32:04.357Z,28640.00
2019-06-08T11:33:04.105Z,13412.00
2019-06-08T11:34:04.143Z,127328.00
2019-06-08T11:35:04.187Z,93376.00
2019-06-08T11:36:06.213Z,8444.00
2019-06-08T11:37:05.121Z,8196.00
2019-06-08T11:38:04.010Z,16732.00
2019-06-08T11:39:04.147Z,118688.00
2019-06-08T11:40:04.532Z,13216.00
2019-06-08T11:41:04.586Z,111456.00
2019-06-08T11:42:04.377Z,113664.00
2019-06-08T11:43:04.364Z,116000.00
2019-06-08T11:44:03.890Z,9800.00
2019-06-08T11:45:04.409Z,125824.00
2019-06-08T11:46:04.635Z,9156.00
2019-06-08T11:47:04.579Z,8844.00
2019-06-08T11:48:04.543Z,8520.00
2019-06-08T11:49:05.902Z,12256.00
2019-06-08T11:50:04.214Z,123136.00
2019-06-08T11:51:04.552Z,15480.00
2019-06-08T11:52:02.836Z,27392.00
2019-06-08T11:53:04.032Z,123808.00
2019-06-08T11:54:02.977Z,47968.00
2019-06-08T11:55:04.157Z,52704.00
2019-06-08T11:56:02.745Z,12300.00
2019-06-08T11:57:02.861Z,13808.00
2019-06-08T11:58:02.935Z,10224.00
2019-06-08T11:59:03.065Z,11704.00
2019-06-08T12:00:09.266Z,123872.00
2019-06-08T12:01:04.701Z,123264.00
2019-06-08T12:02:03.450Z,123520.00
2019-06-08T12:03:02.325Z,124448.00
2019-06-08T12:04:01.975Z,125280.00
2019-06-08T12:05:01.919Z,126656.00
2019-06-08T12:06:02.261Z,127968.00
2019-06-08T12:07:02.156Z,130624.00
2019-06-08T12:08:02.853Z,132288.00
2019-06-08T12:09:02.692Z,13316.00
2019-06-08T12:10:02.997Z,18016.00
2019-06-08T12:11:02.696Z,16704.00
2019-06-08T12:12:02.496Z,140320.00
2019-06-08T12:13:02.527Z,138464.00
2019-06-08T12:14:01.326Z,47360.00
2019-06-08T12:15:01.262Z,57760.00
2019-06-08T12:17:01.492Z,99456.00
2019-06-08T12:18:01.271Z,128224.00
2019-06-08T12:19:01.005Z,121408.00
2019-06-08T12:20:00.940Z,113792.00
2019-06-08T12:21:01.582Z,109792.00
2019-06-08T12:22:00.831Z,19008.00